SHT8B EGLL-EGPH
Flight info
| Callsign | SHT8B |
|---|---|
| Flight time | 0h 58m |
| Altitude | 32000 |
| Route | ULTIB T420 TNT UN57 POL UN601 RIBEL DCT INPIP |
| Aircraft | A320/M-SDE3FGHIJ1RWXY/S |
Departure
| Time | 2026-04-20 18:54 |
|---|---|
| Airport | London Heathrow Airport (EGLL) |
Arrival
| Time | 2026-04-20 19:53 |
|---|---|
| Airport | Edinburgh Airport (EGPH) |
| Time | Latitude | Longitude | Altitude | Speed | Heading |
|---|---|---|---|---|---|
| 2026-04-20 18:38 | 51.46822 | -0.48819 | 89 ft | 0 kts | 180° |
| 2026-04-20 18:47 | 51.46823 | -0.48819 | 88 ft | 1 kts | 179° |
| 2026-04-20 18:47 | 51.46846 | -0.48820 | 88 ft | 4 kts | 179° |
| 2026-04-20 18:48 | 51.46866 | -0.48820 | 86 ft | 4 kts | 152° |
| 2026-04-20 18:48 | 51.46876 | -0.48847 | 90 ft | 3 kts | 90° |
| 2026-04-20 18:48 | 51.46876 | -0.48828 | 86 ft | 4 kts | 90° |
| 2026-04-20 18:48 | 51.46876 | -0.48799 | 88 ft | 0 kts | 90° |
| 2026-04-20 18:50 | 51.46873 | -0.48777 | 86 ft | 5 kts | 112° |
| 2026-04-20 18:51 | 51.46836 | -0.48751 | 86 ft | 7 kts | 176° |
| 2026-04-20 18:51 | 51.46770 | -0.48750 | 86 ft | 12 kts | 179° |
| 2026-04-20 18:51 | 51.46679 | -0.48749 | 86 ft | 14 kts | 180° |
| 2026-04-20 18:51 | 51.46598 | -0.48769 | 89 ft | 5 kts | 199° |
| 2026-04-20 18:52 | 51.46597 | -0.48770 | 86 ft | 0 kts | 199° |
| 2026-04-20 18:52 | 51.46596 | -0.48770 | 86 ft | 1 kts | 199° |
| 2026-04-20 18:52 | 51.46553 | -0.48787 | 88 ft | 10 kts | 186° |
| 2026-04-20 18:53 | 51.46488 | -0.48734 | 89 ft | 12 kts | 124° |
| 2026-04-20 18:53 | 51.46479 | -0.48656 | 86 ft | 0 kts | 91° |
| 2026-04-20 18:53 | 51.46478 | -0.48587 | 86 ft | 28 kts | 90° |
| 2026-04-20 18:54 | 51.46481 | -0.47891 | 88 ft | 95 kts | 90° |
| 2026-04-20 18:54 | 51.46485 | -0.46551 | 89 ft | 143 kts | 89° |
| 2026-04-20 18:54 | 51.46479 | -0.44892 | 601 ft | 147 kts | 88° |
| 2026-04-20 18:54 | 51.46488 | -0.43244 | 1256 ft | 149 kts | 84° |
| 2026-04-20 18:55 | 51.46617 | -0.41535 | 1654 ft | 163 kts | 67° |
| 2026-04-20 18:55 | 51.47274 | -0.39955 | 1912 ft | 186 kts | 50° |
| 2026-04-20 18:55 | 51.48169 | -0.38269 | 2278 ft | 210 kts | 50° |
| 2026-04-20 18:55 | 51.49165 | -0.36375 | 2734 ft | 232 kts | 51° |
| 2026-04-20 18:56 | 51.50234 | -0.34329 | 3590 ft | 239 kts | 50° |
| 2026-04-20 18:56 | 51.51301 | -0.32281 | 4485 ft | 244 kts | 50° |
| 2026-04-20 18:56 | 51.52281 | -0.30030 | 5344 ft | 251 kts | 65° |
| 2026-04-20 18:56 | 51.52891 | -0.27353 | 5868 ft | 258 kts | 69° |
| 2026-04-20 18:57 | 51.53468 | -0.24634 | 5989 ft | 257 kts | 70° |
| 2026-04-20 18:57 | 51.54039 | -0.21908 | 6007 ft | 257 kts | 69° |
| 2026-04-20 18:57 | 51.54949 | -0.19500 | 6011 ft | 254 kts | 40° |
| 2026-04-20 18:57 | 51.56542 | -0.18406 | 6010 ft | 254 kts | 3° |
| 2026-04-20 18:58 | 51.58243 | -0.19087 | 6054 ft | 259 kts | 329° |
| 2026-04-20 18:58 | 51.59218 | -0.20290 | 6058 ft | 262 kts | 322° |
| 2026-04-20 18:58 | 51.60606 | -0.22196 | 6061 ft | 262 kts | 321° |
| 2026-04-20 18:58 | 51.62024 | -0.24027 | 6065 ft | 261 kts | 327° |
| 2026-04-20 18:59 | 51.63519 | -0.25618 | 6064 ft | 261 kts | 330° |
| 2026-04-20 18:59 | 51.65095 | -0.27151 | 6397 ft | 263 kts | 332° |
| 2026-04-20 18:59 | 51.66649 | -0.28613 | 7405 ft | 261 kts | 331° |
| 2026-04-20 18:59 | 51.68232 | -0.30101 | 8240 ft | 265 kts | 332° |
| 2026-04-20 19:00 | 51.69858 | -0.31634 | 9108 ft | 269 kts | 330° |
| 2026-04-20 19:00 | 51.71483 | -0.33177 | 9916 ft | 274 kts | 330° |
| 2026-04-20 19:00 | 51.73138 | -0.34761 | 10662 ft | 281 kts | 330° |
| 2026-04-20 19:00 | 51.74881 | -0.36436 | 10917 ft | 303 kts | 330° |
| 2026-04-20 19:01 | 51.76723 | -0.38218 | 11436 ft | 313 kts | 329° |
| 2026-04-20 19:01 | 51.78607 | -0.40045 | 12035 ft | 318 kts | 329° |
| 2026-04-20 19:01 | 51.80512 | -0.41894 | 12759 ft | 322 kts | 329° |
| 2026-04-20 19:01 | 51.82450 | -0.43776 | 13457 ft | 326 kts | 329° |
| 2026-04-20 19:02 | 51.84403 | -0.45672 | 14155 ft | 329 kts | 329° |
| 2026-04-20 19:02 | 51.86373 | -0.47583 | 14793 ft | 332 kts | 329° |
| 2026-04-20 19:02 | 51.88333 | -0.49487 | 15433 ft | 333 kts | 329° |
| 2026-04-20 19:02 | 51.90332 | -0.51434 | 16050 ft | 337 kts | 328° |
| 2026-04-20 19:03 | 51.92345 | -0.53396 | 16656 ft | 339 kts | 328° |
| 2026-04-20 19:03 | 51.94381 | -0.55380 | 17279 ft | 342 kts | 328° |
| 2026-04-20 19:03 | 51.96430 | -0.57378 | 17903 ft | 345 kts | 328° |
| 2026-04-20 19:03 | 51.98497 | -0.59395 | 18540 ft | 348 kts | 328° |
| 2026-04-20 19:04 | 52.00579 | -0.61428 | 19108 ft | 349 kts | 328° |
| 2026-04-20 19:04 | 52.02663 | -0.63464 | 19737 ft | 350 kts | 327° |
| 2026-04-20 19:04 | 52.04742 | -0.65505 | 20385 ft | 349 kts | 327° |
| 2026-04-20 19:04 | 52.06830 | -0.67559 | 20927 ft | 353 kts | 327° |
| 2026-04-20 19:05 | 52.08939 | -0.69637 | 21469 ft | 354 kts | 327° |
| 2026-04-20 19:05 | 52.11054 | -0.71722 | 22038 ft | 355 kts | 326° |
| 2026-04-20 19:05 | 52.13178 | -0.73816 | 22601 ft | 356 kts | 326° |
| 2026-04-20 19:05 | 52.15299 | -0.75904 | 23170 ft | 357 kts | 326° |
| 2026-04-20 19:06 | 52.17428 | -0.78004 | 23721 ft | 358 kts | 326° |
| 2026-04-20 19:06 | 52.19561 | -0.80113 | 24193 ft | 359 kts | 325° |
| 2026-04-20 19:06 | 52.21702 | -0.82228 | 24634 ft | 361 kts | 325° |
| 2026-04-20 19:06 | 52.23853 | -0.84355 | 25064 ft | 363 kts | 325° |
| 2026-04-20 19:07 | 52.26014 | -0.86499 | 25483 ft | 364 kts | 325° |
| 2026-04-20 19:07 | 52.28184 | -0.88661 | 25922 ft | 366 kts | 325° |
| 2026-04-20 19:07 | 52.30382 | -0.90852 | 26143 ft | 374 kts | 326° |
| 2026-04-20 19:07 | 52.32621 | -0.93080 | 26431 ft | 379 kts | 326° |
| 2026-04-20 19:08 | 52.34884 | -0.95329 | 26814 ft | 382 kts | 326° |
| 2026-04-20 19:08 | 52.39451 | -0.99877 | 27564 ft | 386 kts | 325° |
| 2026-04-20 19:08 | 52.41739 | -1.02163 | 28066 ft | 385 kts | 325° |
| 2026-04-20 19:09 | 52.44028 | -1.04454 | 28479 ft | 386 kts | 325° |
| 2026-04-20 19:09 | 52.46294 | -1.06729 | 28865 ft | 387 kts | 325° |
| 2026-04-20 19:09 | 52.48596 | -1.09044 | 29249 ft | 389 kts | 325° |
| 2026-04-20 19:09 | 52.50910 | -1.11370 | 29632 ft | 391 kts | 324° |
| 2026-04-20 19:10 | 52.53243 | -1.13718 | 29964 ft | 396 kts | 325° |
| 2026-04-20 19:10 | 52.55609 | -1.16105 | 30198 ft | 401 kts | 325° |
| 2026-04-20 19:10 | 52.57995 | -1.18509 | 30463 ft | 405 kts | 325° |
| 2026-04-20 19:10 | 52.60408 | -1.20941 | 30733 ft | 407 kts | 326° |
| 2026-04-20 19:11 | 52.62836 | -1.23392 | 31004 ft | 410 kts | 326° |
| 2026-04-20 19:11 | 52.65266 | -1.25854 | 31373 ft | 410 kts | 326° |
| 2026-04-20 19:11 | 52.67706 | -1.28327 | 31764 ft | 410 kts | 326° |
| 2026-04-20 19:11 | 52.70137 | -1.30796 | 32115 ft | 412 kts | 326° |
| 2026-04-20 19:12 | 52.72568 | -1.33267 | 32210 ft | 407 kts | 326° |
| 2026-04-20 19:12 | 52.74954 | -1.35691 | 32332 ft | 400 kts | 326° |
| 2026-04-20 19:12 | 52.77313 | -1.38092 | 32335 ft | 399 kts | 326° |
| 2026-04-20 19:13 | 52.82056 | -1.42945 | 32322 ft | 402 kts | 326° |
| 2026-04-20 19:13 | 52.86808 | -1.47820 | 32330 ft | 402 kts | 326° |
| 2026-04-20 19:14 | 52.91559 | -1.52698 | 32321 ft | 401 kts | 326° |
| 2026-04-20 19:14 | 52.96297 | -1.57580 | 32331 ft | 400 kts | 326° |
| 2026-04-20 19:15 | 53.01026 | -1.62456 | 32340 ft | 400 kts | 326° |
| 2026-04-20 19:15 | 53.05827 | -1.67182 | 32324 ft | 403 kts | 333° |
| 2026-04-20 19:16 | 53.11086 | -1.70527 | 32322 ft | 406 kts | 337° |
| 2026-04-20 19:16 | 53.16392 | -1.73798 | 32331 ft | 407 kts | 337° |
| 2026-04-20 19:17 | 53.21701 | -1.77099 | 32334 ft | 407 kts | 337° |
| 2026-04-20 19:17 | 53.27011 | -1.80407 | 32344 ft | 408 kts | 338° |
| 2026-04-20 19:18 | 53.32337 | -1.83732 | 32334 ft | 409 kts | 338° |
| 2026-04-20 19:18 | 53.37652 | -1.87062 | 32334 ft | 411 kts | 338° |
| 2026-04-20 19:19 | 53.43004 | -1.90426 | 32331 ft | 411 kts | 338° |
| 2026-04-20 19:19 | 53.48365 | -1.93806 | 32352 ft | 412 kts | 337° |
| 2026-04-20 19:20 | 53.53731 | -1.97196 | 32360 ft | 412 kts | 338° |
| 2026-04-20 19:20 | 53.59099 | -2.00599 | 32361 ft | 412 kts | 337° |
| 2026-04-20 19:21 | 53.64460 | -2.04009 | 32360 ft | 412 kts | 337° |
| 2026-04-20 19:21 | 53.69818 | -2.07417 | 32364 ft | 412 kts | 337° |
| 2026-04-20 19:22 | 53.75176 | -2.10836 | 32367 ft | 412 kts | 337° |
| 2026-04-20 19:22 | 53.80510 | -2.14406 | 32362 ft | 412 kts | 336° |
| 2026-04-20 19:23 | 53.85817 | -2.18090 | 32366 ft | 412 kts | 336° |
| 2026-04-20 19:23 | 53.91129 | -2.21770 | 32367 ft | 413 kts | 336° |
| 2026-04-20 19:24 | 53.96460 | -2.25428 | 32371 ft | 413 kts | 336° |
| 2026-04-20 19:24 | 54.01793 | -2.29081 | 32374 ft | 414 kts | 336° |
| 2026-04-20 19:25 | 54.07103 | -2.32742 | 32368 ft | 415 kts | 336° |
| 2026-04-20 19:25 | 54.12447 | -2.36448 | 32368 ft | 415 kts | 336° |
| 2026-04-20 19:26 | 54.17798 | -2.40169 | 32372 ft | 415 kts | 336° |
| 2026-04-20 19:26 | 54.23148 | -2.43886 | 32384 ft | 415 kts | 337° |
| 2026-04-20 19:27 | 54.28496 | -2.47615 | 32382 ft | 415 kts | 336° |
| 2026-04-20 19:27 | 54.33855 | -2.51359 | 32379 ft | 415 kts | 336° |
| 2026-04-20 19:28 | 54.39208 | -2.55116 | 32378 ft | 415 kts | 336° |
| 2026-04-20 19:28 | 54.44540 | -2.58872 | 32211 ft | 410 kts | 337° |
| 2026-04-20 19:28 | 54.47149 | -2.60710 | 31957 ft | 401 kts | 336° |
| 2026-04-20 19:29 | 54.49710 | -2.62511 | 31699 ft | 397 kts | 337° |
| 2026-04-20 19:29 | 54.52268 | -2.64315 | 31452 ft | 395 kts | 336° |
| 2026-04-20 19:29 | 54.54805 | -2.66113 | 31206 ft | 394 kts | 337° |
| 2026-04-20 19:29 | 54.57344 | -2.67914 | 30957 ft | 393 kts | 336° |
| 2026-04-20 19:30 | 54.59863 | -2.69702 | 30719 ft | 390 kts | 336° |
| 2026-04-20 19:30 | 54.62363 | -2.71478 | 30465 ft | 385 kts | 336° |
| 2026-04-20 19:30 | 54.64824 | -2.73231 | 30034 ft | 381 kts | 336° |
| 2026-04-20 19:30 | 54.67266 | -2.74976 | 29635 ft | 377 kts | 336° |
| 2026-04-20 19:31 | 54.69679 | -2.76701 | 29238 ft | 374 kts | 336° |
| 2026-04-20 19:31 | 54.72069 | -2.78412 | 28866 ft | 370 kts | 335° |
| 2026-04-20 19:31 | 54.74436 | -2.80106 | 28486 ft | 367 kts | 337° |
| 2026-04-20 19:31 | 54.76749 | -2.81759 | 28103 ft | 363 kts | 337° |
| 2026-04-20 19:32 | 54.79076 | -2.83421 | 27742 ft | 360 kts | 336° |
| 2026-04-20 19:32 | 54.81385 | -2.85076 | 27371 ft | 356 kts | 336° |
| 2026-04-20 19:32 | 54.83664 | -2.86720 | 27002 ft | 353 kts | 336° |
| 2026-04-20 19:32 | 54.85921 | -2.88356 | 26643 ft | 350 kts | 337° |
| 2026-04-20 19:33 | 54.88157 | -2.89976 | 26274 ft | 347 kts | 336° |
| 2026-04-20 19:33 | 54.90403 | -2.91601 | 25772 ft | 353 kts | 337° |
| 2026-04-20 19:33 | 54.92686 | -2.93247 | 25259 ft | 356 kts | 337° |
| 2026-04-20 19:33 | 54.94978 | -2.94901 | 24767 ft | 357 kts | 337° |
| 2026-04-20 19:34 | 54.97258 | -2.96554 | 24330 ft | 355 kts | 337° |
| 2026-04-20 19:34 | 54.99541 | -2.98214 | 23806 ft | 357 kts | 338° |
| 2026-04-20 19:34 | 55.01818 | -2.99867 | 23352 ft | 354 kts | 338° |
| 2026-04-20 19:34 | 55.04099 | -3.01526 | 22724 ft | 356 kts | 338° |
| 2026-04-20 19:35 | 55.06386 | -3.03205 | 22113 ft | 358 kts | 338° |
| 2026-04-20 19:35 | 55.08682 | -3.04913 | 21513 ft | 359 kts | 337° |
| 2026-04-20 19:35 | 55.10981 | -3.06647 | 20929 ft | 361 kts | 338° |
| 2026-04-20 19:35 | 55.13283 | -3.08412 | 20366 ft | 361 kts | 338° |
| 2026-04-20 19:36 | 55.15583 | -3.10180 | 19807 ft | 362 kts | 338° |
| 2026-04-20 19:36 | 55.17888 | -3.11939 | 19308 ft | 361 kts | 338° |
| 2026-04-20 19:36 | 55.20192 | -3.13723 | 18811 ft | 360 kts | 338° |
| 2026-04-20 19:36 | 55.22473 | -3.15509 | 18265 ft | 356 kts | 337° |
| 2026-04-20 19:37 | 55.24696 | -3.17250 | 17707 ft | 344 kts | 338° |
| 2026-04-20 19:37 | 55.26847 | -3.18936 | 17163 ft | 334 kts | 338° |
| 2026-04-20 19:37 | 55.28946 | -3.20585 | 16630 ft | 328 kts | 338° |
| 2026-04-20 19:37 | 55.31040 | -3.22232 | 16108 ft | 331 kts | 338° |
| 2026-04-20 19:38 | 55.33151 | -3.23895 | 15595 ft | 333 kts | 338° |
| 2026-04-20 19:38 | 55.35271 | -3.25562 | 15085 ft | 335 kts | 338° |
| 2026-04-20 19:38 | 55.37404 | -3.27242 | 14585 ft | 337 kts | 338° |
| 2026-04-20 19:38 | 55.39546 | -3.28928 | 14083 ft | 337 kts | 338° |
| 2026-04-20 19:39 | 55.41648 | -3.30587 | 13521 ft | 326 kts | 338° |
| 2026-04-20 19:39 | 55.43664 | -3.32187 | 13067 ft | 307 kts | 338° |
| 2026-04-20 19:39 | 55.45547 | -3.33687 | 12570 ft | 289 kts | 337° |
| 2026-04-20 19:39 | 55.47333 | -3.35115 | 12088 ft | 275 kts | 337° |
| 2026-04-20 19:40 | 55.48485 | -3.36030 | 11783 ft | 273 kts | 337° |
| 2026-04-20 19:40 | 55.50206 | -3.37385 | 11321 ft | 269 kts | 338° |
| 2026-04-20 19:40 | 55.52451 | -3.39156 | 10716 ft | 264 kts | 337° |
| 2026-04-20 19:40 | 55.53579 | -3.40035 | 10417 ft | 263 kts | 337° |
| 2026-04-20 19:41 | 55.55248 | -3.41320 | 9935 ft | 260 kts | 338° |
| 2026-04-20 19:41 | 55.56834 | -3.42794 | 9447 ft | 258 kts | 321° |
| 2026-04-20 19:41 | 55.57895 | -3.45292 | 8968 ft | 256 kts | 295° |
| 2026-04-20 19:41 | 55.58561 | -3.48204 | 8487 ft | 254 kts | 290° |
| 2026-04-20 19:42 | 55.59160 | -3.51153 | 8010 ft | 254 kts | 290° |
| 2026-04-20 19:42 | 55.59743 | -3.54101 | 7546 ft | 255 kts | 290° |
| 2026-04-20 19:42 | 55.60324 | -3.57102 | 7100 ft | 261 kts | 289° |
| 2026-04-20 19:42 | 55.61103 | -3.60002 | 6711 ft | 262 kts | 309° |
| 2026-04-20 19:43 | 55.62646 | -3.63200 | 6185 ft | 253 kts | 314° |
| 2026-04-20 19:43 | 55.63806 | -3.65452 | 5963 ft | 239 kts | 315° |
| 2026-04-20 19:43 | 55.64541 | -3.66880 | 5974 ft | 227 kts | 315° |
| 2026-04-20 19:43 | 55.65566 | -3.68901 | 5975 ft | 214 kts | 314° |
| 2026-04-20 19:44 | 55.66539 | -3.70839 | 5986 ft | 216 kts | 314° |
| 2026-04-20 19:44 | 55.67565 | -3.72865 | 5989 ft | 222 kts | 315° |
| 2026-04-20 19:44 | 55.68592 | -3.74878 | 5990 ft | 223 kts | 314° |
| 2026-04-20 19:44 | 55.69648 | -3.76941 | 5950 ft | 225 kts | 315° |
| 2026-04-20 19:45 | 55.70676 | -3.78964 | 5602 ft | 222 kts | 314° |
| 2026-04-20 19:45 | 55.71702 | -3.80977 | 5264 ft | 217 kts | 314° |
| 2026-04-20 19:45 | 55.72860 | -3.82562 | 4909 ft | 207 kts | 345° |
| 2026-04-20 19:45 | 55.74272 | -3.82717 | 4579 ft | 201 kts | 13° |
| 2026-04-20 19:46 | 55.75636 | -3.82156 | 4242 ft | 202 kts | 19° |
| 2026-04-20 19:46 | 55.76979 | -3.81509 | 4002 ft | 200 kts | 19° |
| 2026-04-20 19:46 | 55.78276 | -3.80869 | 4009 ft | 189 kts | 19° |
| 2026-04-20 19:46 | 55.79519 | -3.80236 | 3994 ft | 183 kts | 25° |
| 2026-04-20 19:47 | 55.80571 | -3.79076 | 3986 ft | 177 kts | 47° |
| 2026-04-20 19:47 | 55.81289 | -3.77317 | 3992 ft | 175 kts | 60° |
| 2026-04-20 19:47 | 55.81927 | -3.75467 | 3993 ft | 176 kts | 60° |
| 2026-04-20 19:47 | 55.82565 | -3.73617 | 4000 ft | 175 kts | 60° |
| 2026-04-20 19:48 | 55.83200 | -3.71773 | 4004 ft | 174 kts | 60° |
| 2026-04-20 19:48 | 55.83834 | -3.69931 | 4009 ft | 175 kts | 60° |
| 2026-04-20 19:48 | 55.84474 | -3.68070 | 3951 ft | 175 kts | 60° |
| 2026-04-20 19:48 | 55.85106 | -3.66229 | 3768 ft | 174 kts | 60° |
| 2026-04-20 19:49 | 55.85736 | -3.64394 | 3547 ft | 174 kts | 60° |
| 2026-04-20 19:49 | 55.86363 | -3.62567 | 3310 ft | 172 kts | 60° |
| 2026-04-20 19:49 | 55.86985 | -3.60754 | 3070 ft | 171 kts | 61° |
| 2026-04-20 19:49 | 55.87605 | -3.58944 | 2846 ft | 170 kts | 61° |
| 2026-04-20 19:50 | 55.88219 | -3.57148 | 2601 ft | 170 kts | 61° |
| 2026-04-20 19:50 | 55.88816 | -3.55405 | 2381 ft | 162 kts | 61° |
| 2026-04-20 19:50 | 55.89386 | -3.53738 | 2153 ft | 155 kts | 62° |
| 2026-04-20 19:50 | 55.89942 | -3.52110 | 1937 ft | 153 kts | 62° |
| 2026-04-20 19:51 | 55.90485 | -3.50517 | 1724 ft | 145 kts | 62° |
| 2026-04-20 19:51 | 55.90986 | -3.49051 | 1531 ft | 135 kts | 62° |
| 2026-04-20 19:51 | 55.91468 | -3.47636 | 1344 ft | 133 kts | 62° |
| 2026-04-20 19:51 | 55.91946 | -3.46231 | 1150 ft | 132 kts | 60° |
| 2026-04-20 19:52 | 55.92423 | -3.44830 | 959 ft | 132 kts | 60° |
| 2026-04-20 19:52 | 55.92900 | -3.43428 | 772 ft | 134 kts | 60° |
| 2026-04-20 19:52 | 55.93381 | -3.42013 | 585 ft | 133 kts | 60° |
| 2026-04-20 19:52 | 55.93865 | -3.40588 | 408 ft | 134 kts | 59° |
| 2026-04-20 19:53 | 55.94348 | -3.39177 | 217 ft | 133 kts | 59° |
| 2026-04-20 19:53 | 55.94809 | -3.37818 | 119 ft | 117 kts | 59° |
| 2026-04-20 19:53 | 55.95126 | -3.36881 | 114 ft | 47 kts | 59° |
| 2026-04-20 19:53 | 55.95213 | -3.36620 | 113 ft | 21 kts | 59° |
| 2026-04-20 19:54 | 55.95250 | -3.36427 | 111 ft | 14 kts | 116° |
| 2026-04-20 19:54 | 55.95181 | -3.36339 | 113 ft | 11 kts | 149° |
| 2026-04-20 19:54 | 55.95114 | -3.36345 | 114 ft | 11 kts | 226° |
| 2026-04-20 19:54 | 55.95048 | -3.36387 | 116 ft | 11 kts | 170° |
| 2026-04-20 19:55 | 55.95006 | -3.36415 | 114 ft | 5 kts | 198° |
| 2026-04-20 19:55 | 55.94971 | -3.36389 | 112 ft | 5 kts | 149° |
| 2026-04-20 19:55 | 55.94951 | -3.36368 | 115 ft | 2 kts | 149° |
| 2026-04-20 19:55 | 55.94943 | -3.36360 | 114 ft | 0 kts | 149° |